createdAt,value
2018-08-25T00:00:49.939Z,20.40
2018-08-25T00:03:18.600Z,20.20
2018-08-25T00:05:47.186Z,20.30
2018-08-25T00:08:15.792Z,20.20
2018-08-25T00:10:44.334Z,20.30
2018-08-25T00:13:12.882Z,20.40
2018-08-25T00:15:41.451Z,20.50
2018-08-25T00:18:10.972Z,20.50
2018-08-25T00:20:39.947Z,20.50
2018-08-25T00:23:08.550Z,20.60
2018-08-25T00:25:37.375Z,20.50
2018-08-25T00:28:05.942Z,20.40
2018-08-25T00:30:39.956Z,20.20
2018-08-25T00:33:08.573Z,20.20
2018-08-25T00:35:37.242Z,20.20
2018-08-25T00:38:05.827Z,20.10
2018-08-25T00:40:34.477Z,20.10
2018-08-25T00:43:03.141Z,20.10
2018-08-25T00:45:32.022Z,20.00
2018-08-25T00:48:00.660Z,20.00
2018-08-25T00:50:29.588Z,20.00
2018-08-25T00:52:58.226Z,19.90
2018-08-25T00:55:27.082Z,19.90
2018-08-25T00:57:55.739Z,19.90
2018-08-25T01:00:24.377Z,19.90
2018-08-25T01:02:53.008Z,19.80
2018-08-25T01:05:21.696Z,19.80
2018-08-25T01:07:50.276Z,19.70
2018-08-25T01:10:18.918Z,19.70
2018-08-25T01:12:47.455Z,19.60
2018-08-25T01:15:16.233Z,19.70
2018-08-25T01:17:44.764Z,19.80
2018-08-25T01:20:13.359Z,19.80
2018-08-25T01:22:41.943Z,19.60
2018-08-25T01:25:10.524Z,19.70
2018-08-25T01:27:39.141Z,19.50
2018-08-25T01:30:07.851Z,19.50
2018-08-25T01:32:36.478Z,19.60
2018-08-25T01:35:05.128Z,19.60
2018-08-25T01:37:33.838Z,19.60
2018-08-25T01:40:02.458Z,19.40
2018-08-25T01:42:31.042Z,19.50
2018-08-25T01:44:59.603Z,19.60
2018-08-25T01:47:28.153Z,19.50
2018-08-25T01:49:56.859Z,19.60
2018-08-25T01:52:25.420Z,19.60
2018-08-25T01:54:54.405Z,19.60
2018-08-25T01:57:22.978Z,19.70
2018-08-25T01:59:51.543Z,19.60
2018-08-25T02:02:20.107Z,19.70
2018-08-25T02:04:48.784Z,19.60
2018-08-25T02:07:17.486Z,19.50
2018-08-25T02:09:46.160Z,19.50
2018-08-25T02:12:14.756Z,19.30
2018-08-25T02:14:43.482Z,19.40
2018-08-25T02:17:12.117Z,19.50
2018-08-25T02:19:40.745Z,19.60
2018-08-25T02:22:09.270Z,19.50
2018-08-25T02:24:37.853Z,19.40
2018-08-25T02:27:06.534Z,19.40
2018-08-25T02:29:35.100Z,19.40
2018-08-25T02:32:04.074Z,19.40
2018-08-25T02:34:32.699Z,19.40
2018-08-25T02:37:01.282Z,19.50
2018-08-25T02:39:29.982Z,19.40
2018-08-25T02:41:58.552Z,19.30
2018-08-25T02:44:27.363Z,19.30
2018-08-25T02:46:55.945Z,19.20
2018-08-25T02:49:24.495Z,19.30
2018-08-25T02:51:53.212Z,19.30
2018-08-25T02:54:21.709Z,19.20
2018-08-25T02:56:50.356Z,19.20
2018-08-25T02:59:18.928Z,19.10
2018-08-25T03:01:47.507Z,19.30
2018-08-25T03:04:16.351Z,19.30
2018-08-25T03:06:44.916Z,19.30
2018-08-25T03:09:13.568Z,19.40
2018-08-25T03:11:42.195Z,19.30
2018-08-25T03:14:10.665Z,19.20
2018-08-25T03:16:39.265Z,19.20
2018-08-25T03:19:07.792Z,19.30
2018-08-25T03:21:36.331Z,19.20
2018-08-25T03:24:10.208Z,19.30
2018-08-25T03:26:38.888Z,19.20
2018-08-25T03:29:07.800Z,19.10
2018-08-25T03:31:36.384Z,19.20
2018-08-25T03:34:04.891Z,19.20
2018-08-25T03:36:33.457Z,19.10
2018-08-25T03:39:02.119Z,19.10
2018-08-25T03:41:30.669Z,18.90
2018-08-25T03:43:59.289Z,18.70
2018-08-25T03:46:27.892Z,18.80
2018-08-25T03:48:56.419Z,18.70
2018-08-25T03:51:25.009Z,18.60
2018-08-25T03:53:53.595Z,18.60
2018-08-25T03:56:22.223Z,18.60
2018-08-25T03:58:50.817Z,18.70
2018-08-25T04:01:19.653Z,18.70
2018-08-25T04:03:48.282Z,18.70
2018-08-25T04:06:16.916Z,18.70
2018-08-25T04:08:45.438Z,18.70
2018-08-25T04:11:14.149Z,18.70
2018-08-25T04:13:42.683Z,18.70
2018-08-25T04:16:11.270Z,18.70
2018-08-25T04:18:39.900Z,18.70
2018-08-25T04:21:08.441Z,18.80
2018-08-25T04:23:37.071Z,18.80
2018-08-25T04:26:05.990Z,18.80
2018-08-25T04:28:34.551Z,18.90
2018-08-25T04:31:03.108Z,18.80
2018-08-25T04:33:31.763Z,18.80
2018-08-25T04:36:00.311Z,18.80
2018-08-25T04:38:28.887Z,18.80
2018-08-25T04:40:57.458Z,18.70
2018-08-25T04:43:25.975Z,18.60
2018-08-25T04:45:54.638Z,18.70
2018-08-25T04:48:23.270Z,18.60
2018-08-25T04:50:52.011Z,18.70
2018-08-25T04:53:20.585Z,18.70
2018-08-25T04:55:49.223Z,18.60
2018-08-25T04:58:17.819Z,18.70
2018-08-25T05:00:46.323Z,18.70
2018-08-25T05:03:14.868Z,18.70
2018-08-25T05:05:43.809Z,18.70
2018-08-25T05:08:12.379Z,18.70
2018-08-25T05:10:41.119Z,18.60
2018-08-25T05:13:09.663Z,18.50
2018-08-25T05:15:38.282Z,18.50
2018-08-25T05:18:06.873Z,18.60
2018-08-25T05:20:35.467Z,18.50
2018-08-25T05:23:04.104Z,18.50
2018-08-25T05:25:32.994Z,18.40
2018-08-25T05:28:01.631Z,18.50
2018-08-25T05:30:30.381Z,18.40
2018-08-25T05:32:58.951Z,18.50
2018-08-25T05:35:27.540Z,18.50
2018-08-25T05:37:56.094Z,18.60
2018-08-25T05:40:24.724Z,18.70
2018-08-25T05:42:54.077Z,18.70
2018-08-25T05:45:22.873Z,18.60
2018-08-25T05:47:51.514Z,18.50
2018-08-25T05:50:20.051Z,18.60
2018-08-25T05:52:48.691Z,18.50
2018-08-25T05:55:17.523Z,18.60
2018-08-25T05:57:46.269Z,18.70
2018-08-25T06:00:14.922Z,18.70
2018-08-25T06:02:43.520Z,18.70
2018-08-25T06:05:12.227Z,18.80
2018-08-25T06:07:40.796Z,18.80
2018-08-25T06:10:09.388Z,18.90
2018-08-25T06:12:38.027Z,18.80
2018-08-25T06:15:06.749Z,18.80
2018-08-25T06:17:35.428Z,18.90
2018-08-25T06:20:04.235Z,18.80
2018-08-25T06:22:32.815Z,19.00
2018-08-25T06:25:01.443Z,19.20
2018-08-25T06:27:30.040Z,19.40
2018-08-25T06:29:58.675Z,19.50
2018-08-25T06:32:27.252Z,19.60
2018-08-25T06:34:55.897Z,19.60
2018-08-25T06:37:24.572Z,19.70
2018-08-25T06:39:53.328Z,19.70
2018-08-25T06:42:21.948Z,19.70
2018-08-25T06:44:50.662Z,19.80
2018-08-25T06:47:19.271Z,19.70
2018-08-25T06:49:48.051Z,19.80
2018-08-25T06:52:16.683Z,19.80
2018-08-25T06:54:46.456Z,19.80
2018-08-25T06:57:15.099Z,19.80
2018-08-25T06:59:43.883Z,19.90
2018-08-25T07:02:12.550Z,20.10
2018-08-25T07:04:41.148Z,20.10
2018-08-25T07:07:09.788Z,20.20
2018-08-25T07:09:38.430Z,20.10
2018-08-25T07:12:07.071Z,20.20
2018-08-25T07:14:35.826Z,20.20
2018-08-25T07:17:04.413Z,20.20
2018-08-25T07:19:33.107Z,20.30
2018-08-25T07:22:01.752Z,20.30
2018-08-25T07:24:30.358Z,20.40
2018-08-25T07:26:58.976Z,20.40
2018-08-25T07:29:27.551Z,20.40
2018-08-25T07:31:56.153Z,20.30
2018-08-25T07:34:24.764Z,20.30
2018-08-25T07:36:53.363Z,20.40
2018-08-25T07:39:21.984Z,20.40
2018-08-25T07:41:50.688Z,20.50
2018-08-25T07:44:19.205Z,20.50
2018-08-25T07:46:47.948Z,20.60
2018-08-25T07:49:16.832Z,20.60
2018-08-25T07:51:45.456Z,20.60
2018-08-25T07:54:14.089Z,20.60
2018-08-25T07:56:42.945Z,20.60
2018-08-25T07:59:11.674Z,20.60
2018-08-25T08:01:40.421Z,20.60
2018-08-25T08:04:09.068Z,20.60
2018-08-25T08:06:37.625Z,20.60
2018-08-25T08:09:09.045Z,20.60
2018-08-25T08:11:37.699Z,20.60
2018-08-25T08:14:06.469Z,20.60
2018-08-25T08:16:35.095Z,20.60
2018-08-25T08:19:03.705Z,20.60
2018-08-25T08:21:32.329Z,20.60
2018-08-25T08:24:00.891Z,20.60
2018-08-25T08:26:30.212Z,20.50
2018-08-25T08:28:58.787Z,20.40
2018-08-25T08:31:27.394Z,20.50
2018-08-25T08:33:55.932Z,20.40
2018-08-25T08:36:24.649Z,20.40
2018-08-25T08:38:53.261Z,20.30
2018-08-25T08:41:21.966Z,20.30
2018-08-25T08:43:50.686Z,20.20
2018-08-25T08:46:33.766Z,20.30
2018-08-25T08:49:02.977Z,20.30
2018-08-25T08:51:31.540Z,20.10
2018-08-25T08:54:00.161Z,20.10
2018-08-25T08:56:29.117Z,20.10
2018-08-25T08:58:57.655Z,20.20
2018-08-25T09:01:26.187Z,20.10
2018-08-25T09:03:54.808Z,20.10
2018-08-25T09:06:23.641Z,20.10
2018-08-25T09:08:52.453Z,20.20
2018-08-25T09:11:21.133Z,20.10
2018-08-25T09:13:50.081Z,20.10
2018-08-25T09:16:19.232Z,20.10
2018-08-25T09:18:47.850Z,20.10
2018-08-25T09:21:16.469Z,19.90
2018-08-25T09:23:45.089Z,20.00
2018-08-25T09:26:14.131Z,20.10
2018-08-25T09:28:42.762Z,20.10
2018-08-25T09:31:11.365Z,20.10
2018-08-25T09:33:40.034Z,20.10
2018-08-25T09:36:08.801Z,20.10
2018-08-25T09:38:37.362Z,20.10
2018-08-25T09:41:05.980Z,20.10
2018-08-25T09:43:34.544Z,20.00
2018-08-25T09:46:03.536Z,20.00
2018-08-25T09:48:34.356Z,20.00
2018-08-25T09:51:03.081Z,20.00
2018-08-25T09:53:31.753Z,20.00
2018-08-25T09:56:00.428Z,20.10
2018-08-25T09:58:29.020Z,20.10
2018-08-25T10:01:02.923Z,20.10
2018-08-25T10:03:31.529Z,20.20
2018-08-25T10:06:00.068Z,20.30
2018-08-25T10:08:28.698Z,20.20
2018-08-25T10:10:57.495Z,20.20
2018-08-25T10:13:26.153Z,20.20
2018-08-25T10:15:55.020Z,20.30
2018-08-25T10:18:23.722Z,20.20
2018-08-25T10:20:52.446Z,20.30
2018-08-25T10:23:21.091Z,20.20
2018-08-25T10:25:49.737Z,20.30
2018-08-25T10:28:19.036Z,20.10
2018-08-25T10:30:47.736Z,20.10
2018-08-25T10:33:16.339Z,20.00
2018-08-25T10:35:45.167Z,20.00
2018-08-25T10:38:13.681Z,19.90
2018-08-25T10:40:42.262Z,19.90
2018-08-25T10:43:10.812Z,20.00
2018-08-25T10:45:39.384Z,20.00
2018-08-25T10:48:08.188Z,20.00
2018-08-25T10:50:36.782Z,20.00
2018-08-25T10:53:05.525Z,20.10
2018-08-25T10:55:34.427Z,20.10
2018-08-25T10:58:03.213Z,20.00
2018-08-25T11:00:31.849Z,20.00
2018-08-25T11:03:00.391Z,20.00
2018-08-25T11:05:28.966Z,20.00
2018-08-25T11:07:57.572Z,20.00
2018-08-25T11:10:26.242Z,19.90
2018-08-25T11:12:54.821Z,19.90
2018-08-25T11:15:23.476Z,19.90
2018-08-25T11:17:52.135Z,19.80
2018-08-25T11:20:20.703Z,19.80
2018-08-25T11:22:49.483Z,19.70
2018-08-25T11:25:18.094Z,19.70
2018-08-25T11:27:46.588Z,19.70
2018-08-25T11:30:15.164Z,19.60
2018-08-25T11:32:43.789Z,19.60
2018-08-25T11:35:12.358Z,19.60
2018-08-25T11:37:41.112Z,19.60
2018-08-25T11:40:09.717Z,19.60
2018-08-25T11:42:38.308Z,19.60
2018-08-25T11:45:07.211Z,19.60
2018-08-25T11:47:35.804Z,19.60
2018-08-25T11:50:04.486Z,19.60
2018-08-25T11:52:33.073Z,19.60
2018-08-25T11:55:01.642Z,19.60
2018-08-25T11:57:30.308Z,19.70
2018-08-25T11:59:59.046Z,19.60
2018-08-25T12:02:27.947Z,19.60
2018-08-25T12:04:56.447Z,19.70
2018-08-25T12:07:25.392Z,19.70
2018-08-25T12:09:54.030Z,19.80
2018-08-25T12:12:22.559Z,19.80
2018-08-25T12:14:51.055Z,19.80
2018-08-25T12:17:19.750Z,19.80
2018-08-25T12:19:48.469Z,19.80
2018-08-25T12:22:17.328Z,19.80
2018-08-25T12:24:45.939Z,19.80
2018-08-25T12:27:14.507Z,19.70
2018-08-25T12:29:43.054Z,19.70
2018-08-25T12:32:11.680Z,19.60
2018-08-25T12:34:40.239Z,19.50
2018-08-25T12:37:09.049Z,19.40
2018-08-25T12:39:37.756Z,19.40
2018-08-25T12:42:06.265Z,19.40
2018-08-25T12:44:34.849Z,19.30
2018-08-25T12:47:03.489Z,19.30
2018-08-25T12:49:33.001Z,19.20
2018-08-25T12:52:01.544Z,19.10
2018-08-25T12:54:30.232Z,19.00
2018-08-25T12:56:59.063Z,18.90
2018-08-25T12:59:27.615Z,18.80
2018-08-25T13:01:56.204Z,18.70
2018-08-25T13:04:24.815Z,18.70
2018-08-25T13:06:53.438Z,18.70
2018-08-25T13:09:21.988Z,18.80
2018-08-25T13:11:50.522Z,18.70
2018-08-25T13:14:19.136Z,18.80
2018-08-25T13:16:47.903Z,18.90
2018-08-25T13:19:16.509Z,19.00
2018-08-25T13:21:45.406Z,18.90
2018-08-25T13:24:14.103Z,19.00
2018-08-25T13:26:42.678Z,19.00
2018-08-25T13:29:11.500Z,19.10
2018-08-25T13:31:40.063Z,19.20
2018-08-25T13:34:08.691Z,19.20
2018-08-25T13:36:37.644Z,19.30
2018-08-25T13:39:08.740Z,19.20
2018-08-25T13:41:38.007Z,19.10
2018-08-25T13:44:06.804Z,19.20
2018-08-25T13:46:35.497Z,19.30
2018-08-25T13:49:04.141Z,19.20
2018-08-25T13:51:32.727Z,19.20
2018-08-25T13:54:01.459Z,19.30
2018-08-25T13:56:35.162Z,19.30
2018-08-25T13:59:03.957Z,19.20
2018-08-25T14:01:32.516Z,19.40
2018-08-25T14:04:01.088Z,19.40
2018-08-25T14:06:29.912Z,19.40
2018-08-25T14:08:58.448Z,19.40
2018-08-25T14:11:27.236Z,19.50
2018-08-25T14:13:55.786Z,19.50
2018-08-25T14:16:24.754Z,19.60
2018-08-25T14:18:53.260Z,19.60
2018-08-25T14:21:21.930Z,19.70
2018-08-25T14:23:50.440Z,19.70
2018-08-25T14:26:19.112Z,19.80
2018-08-25T14:28:47.682Z,19.90
2018-08-25T14:31:16.329Z,20.00
2018-08-25T14:33:45.014Z,20.00
2018-08-25T14:36:13.713Z,20.10
2018-08-25T14:38:42.371Z,19.90
2018-08-25T14:41:10.900Z,20.00
2018-08-25T14:43:39.576Z,20.00
2018-08-25T14:46:08.312Z,20.10
2018-08-25T14:48:36.895Z,20.10
2018-08-25T14:51:05.646Z,20.10
2018-08-25T14:53:34.300Z,20.00
2018-08-25T14:56:02.957Z,20.00
2018-08-25T14:58:31.516Z,20.00
2018-08-25T15:01:00.231Z,20.00
2018-08-25T15:03:28.796Z,20.00
2018-08-25T15:05:57.531Z,20.00
2018-08-25T15:08:26.063Z,20.00
2018-08-25T15:10:54.577Z,19.90
2018-08-25T15:13:23.195Z,19.80
2018-08-25T15:15:51.694Z,19.60
2018-08-25T15:18:20.289Z,19.40
2018-08-25T15:20:48.959Z,19.10
2018-08-25T15:23:17.617Z,19.00
2018-08-25T15:25:46.202Z,18.90
2018-08-25T15:28:14.771Z,18.90
2018-08-25T15:30:43.368Z,18.90
2018-08-25T15:33:11.981Z,18.90
2018-08-25T15:35:40.608Z,19.00
2018-08-25T15:38:09.234Z,19.10
2018-08-25T15:40:37.935Z,19.10
2018-08-25T15:43:06.525Z,19.20
2018-08-25T15:45:35.108Z,19.30
2018-08-25T15:48:04.005Z,19.30
2018-08-25T15:50:32.617Z,19.40
2018-08-25T15:53:01.179Z,19.40
2018-08-25T15:55:29.859Z,19.40
2018-08-25T15:57:58.811Z,19.30
2018-08-25T16:00:27.420Z,19.40
2018-08-25T16:02:56.106Z,19.50
2018-08-25T16:05:24.664Z,19.40
2018-08-25T16:07:53.447Z,19.50
2018-08-25T16:10:22.007Z,19.60
2018-08-25T16:12:50.615Z,19.50
2018-08-25T16:15:19.129Z,19.50
2018-08-25T16:17:47.707Z,19.50
2018-08-25T16:20:16.367Z,19.50
2018-08-25T16:22:44.958Z,19.50
2018-08-25T16:25:13.513Z,19.50
2018-08-25T16:27:42.250Z,19.50
2018-08-25T16:30:10.855Z,19.50
2018-08-25T16:32:39.424Z,19.50
2018-08-25T16:35:08.129Z,19.60
2018-08-25T16:37:36.680Z,19.60
2018-08-25T16:40:05.351Z,19.60
2018-08-25T16:42:33.937Z,19.60
2018-08-25T16:45:02.454Z,19.60
2018-08-25T16:47:31.139Z,19.60
2018-08-25T16:49:59.739Z,19.60
2018-08-25T16:52:28.380Z,19.60
2018-08-25T16:54:56.909Z,19.60
2018-08-25T16:57:25.560Z,19.70
2018-08-25T16:59:54.460Z,19.70
2018-08-25T17:02:23.067Z,19.60
2018-08-25T17:04:51.820Z,19.50
2018-08-25T17:07:20.632Z,19.60
2018-08-25T17:09:49.456Z,19.60
2018-08-25T17:12:18.054Z,19.70
2018-08-25T17:14:46.637Z,19.80
2018-08-25T17:17:15.236Z,19.80
2018-08-25T17:19:43.731Z,19.80
2018-08-25T17:22:12.336Z,19.80
2018-08-25T17:24:40.859Z,19.80
2018-08-25T17:27:09.457Z,19.80
2018-08-25T17:29:37.927Z,19.80
2018-08-25T17:32:06.551Z,19.70
2018-08-25T17:34:35.881Z,19.70
2018-08-25T17:37:04.497Z,19.70
2018-08-25T17:39:33.127Z,19.70
2018-08-25T17:42:01.714Z,19.70
2018-08-25T17:44:30.261Z,19.70
2018-08-25T17:47:03.981Z,19.70
2018-08-25T17:49:32.534Z,19.70
2018-08-25T17:52:01.130Z,19.80
2018-08-25T17:54:29.763Z,19.90
2018-08-25T17:56:59.129Z,19.90
2018-08-25T17:59:27.731Z,19.90
2018-08-25T18:01:56.313Z,19.80
2018-08-25T18:04:24.877Z,19.70
2018-08-25T18:06:53.499Z,19.70
2018-08-25T18:09:22.036Z,19.70
2018-08-25T18:11:50.559Z,19.70
2018-08-25T18:14:19.348Z,19.80
2018-08-25T18:16:48.255Z,19.80
2018-08-25T18:19:16.830Z,19.80
2018-08-25T18:21:45.408Z,19.80
2018-08-25T18:24:13.987Z,19.70
2018-08-25T18:26:42.471Z,19.60
2018-08-25T18:29:11.057Z,19.60
2018-08-25T18:31:39.627Z,19.50
2018-08-25T18:34:08.225Z,19.40
2018-08-25T18:36:37.119Z,19.40
2018-08-25T18:39:08.740Z,19.50
2018-08-25T18:41:37.448Z,19.50
2018-08-25T18:44:06.136Z,19.50
2018-08-25T18:46:34.679Z,19.50
2018-08-25T18:49:03.470Z,19.40
2018-08-25T18:51:32.072Z,19.40
2018-08-25T18:54:00.647Z,19.40
2018-08-25T18:56:29.920Z,19.40
2018-08-25T18:58:58.559Z,19.40
2018-08-25T19:01:27.219Z,19.40
2018-08-25T19:03:56.005Z,19.20
2018-08-25T19:06:24.643Z,19.10
2018-08-25T19:08:53.465Z,19.20
2018-08-25T19:11:22.031Z,19.20
2018-08-25T19:13:50.731Z,19.10
2018-08-25T19:16:19.351Z,19.10
2018-08-25T19:18:48.775Z,19.00
2018-08-25T19:21:17.366Z,19.00
2018-08-25T19:23:46.085Z,19.10
2018-08-25T19:26:14.786Z,19.00
2018-08-25T19:28:43.533Z,18.90
2018-08-25T19:31:12.205Z,18.80
2018-08-25T19:33:40.792Z,18.80
2018-08-25T19:36:09.513Z,18.70
2018-08-25T19:38:38.392Z,18.60
2018-08-25T19:41:07.425Z,18.60
2018-08-25T19:43:36.046Z,18.80
2018-08-25T19:46:04.751Z,18.80
2018-08-25T19:48:33.454Z,18.80
2018-08-25T19:51:03.400Z,18.70
2018-08-25T19:53:32.127Z,18.60
2018-08-25T19:56:00.830Z,18.50
2018-08-25T19:58:29.704Z,18.40
2018-08-25T20:00:59.347Z,18.40
2018-08-25T20:03:27.912Z,18.40
2018-08-25T20:05:56.496Z,18.20
2018-08-25T20:08:25.107Z,18.30
2018-08-25T20:10:53.830Z,18.30
2018-08-25T20:13:22.443Z,18.20
2018-08-25T20:15:51.108Z,18.20
2018-08-25T20:18:20.092Z,18.10
2018-08-25T20:20:48.796Z,18.20
2018-08-25T20:23:17.316Z,18.30
2018-08-25T20:25:45.881Z,18.40
2018-08-25T20:28:14.565Z,18.40
2018-08-25T20:30:43.164Z,18.40
2018-08-25T20:33:11.772Z,18.30
2018-08-25T20:35:40.495Z,18.10
2018-08-25T20:38:09.142Z,18.20
2018-08-25T20:40:37.799Z,18.20
2018-08-25T20:43:06.784Z,18.20
2018-08-25T20:45:35.544Z,18.20
2018-08-25T20:48:04.018Z,18.10
2018-08-25T20:50:32.613Z,18.10
2018-08-25T20:53:01.267Z,18.00
2018-08-25T20:55:29.802Z,17.90
2018-08-25T20:57:58.597Z,17.80
2018-08-25T21:00:27.187Z,17.80
2018-08-25T21:02:55.789Z,17.70
2018-08-25T21:05:24.321Z,17.80
2018-08-25T21:07:52.823Z,17.70
2018-08-25T21:10:21.614Z,17.70
2018-08-25T21:12:50.216Z,17.70
2018-08-25T21:15:18.861Z,17.80
2018-08-25T21:17:47.515Z,17.80
2018-08-25T21:20:16.081Z,17.70
2018-08-25T21:22:44.874Z,17.70
2018-08-25T21:25:13.426Z,17.70
2018-08-25T21:27:42.005Z,17.60
2018-08-25T21:30:10.923Z,17.60
2018-08-25T21:32:39.452Z,17.70
2018-08-25T21:35:08.093Z,17.70
2018-08-25T21:37:36.910Z,17.60
2018-08-25T21:40:05.517Z,17.60
2018-08-25T21:42:34.099Z,17.60
2018-08-25T21:45:02.733Z,17.50
2018-08-25T21:47:31.388Z,17.40
2018-08-25T21:49:59.948Z,17.40
2018-08-25T21:52:28.543Z,17.40
2018-08-25T21:54:57.081Z,17.40
2018-08-25T21:57:25.865Z,17.50
2018-08-25T21:59:54.454Z,17.60
2018-08-25T22:02:23.860Z,17.50
2018-08-25T22:04:52.481Z,17.40
2018-08-25T22:07:21.306Z,17.30
2018-08-25T22:09:49.887Z,17.30
2018-08-25T22:12:18.443Z,17.40
2018-08-25T22:14:47.015Z,17.30
2018-08-25T22:17:15.565Z,17.20
2018-08-25T22:19:44.128Z,17.20
2018-08-25T22:22:12.686Z,17.20
2018-08-25T22:24:41.212Z,17.20
2018-08-25T22:27:10.147Z,17.20
2018-08-25T22:29:38.683Z,17.40
2018-08-25T22:32:07.282Z,17.20
2018-08-25T22:34:35.960Z,17.10
2018-08-25T22:37:04.749Z,17.10
2018-08-25T22:39:33.255Z,17.10
2018-08-25T22:42:01.811Z,17.10
2018-08-25T22:44:30.418Z,17.20
2018-08-25T22:46:58.981Z,17.20
2018-08-25T22:49:27.700Z,17.20
2018-08-25T22:51:56.275Z,17.10
2018-08-25T22:54:24.815Z,17.00
2018-08-25T22:56:53.396Z,17.00
2018-08-25T22:59:22.084Z,17.00
2018-08-25T23:01:50.703Z,16.80
2018-08-25T23:04:19.334Z,16.80
2018-08-25T23:06:47.953Z,16.80
2018-08-25T23:09:16.554Z,16.80
2018-08-25T23:11:45.068Z,16.80
2018-08-25T23:14:13.618Z,16.80
2018-08-25T23:16:42.181Z,16.70
2018-08-25T23:19:10.888Z,16.70
2018-08-25T23:21:39.426Z,16.70
2018-08-25T23:24:08.008Z,16.60
2018-08-25T23:26:36.623Z,16.60
2018-08-25T23:29:05.275Z,16.60
2018-08-25T23:31:33.907Z,16.40
2018-08-25T23:34:02.429Z,16.40
2018-08-25T23:36:31.129Z,16.50
2018-08-25T23:38:59.845Z,16.50
2018-08-25T23:41:28.478Z,16.40
2018-08-25T23:43:56.992Z,16.40
2018-08-25T23:46:25.581Z,16.30
2018-08-25T23:48:54.274Z,16.20
2018-08-25T23:51:22.889Z,16.20
2018-08-25T23:56:34.565Z,16.20
2018-08-25T23:59:03.474Z,16.30
